sensor_id;sensor_type;location;lat;lon;timestamp;pressure;altitude;pressure_sealevel;temperature;humidity
13367;BME280;6752;52.612;13.630;2023-02-21T00:03:07;100498.95;;;8.92;100.00
13367;BME280;6752;52.612;13.630;2023-02-21T00:08:27;100499.16;;;8.90;100.00
13367;BME280;6752;52.612;13.630;2023-02-21T00:13:48;100505.03;;;8.87;100.00
13367;BME280;6752;52.612;13.630;2023-02-21T00:19:09;100514.98;;;8.81;100.00
13367;BME280;6752;52.612;13.630;2023-02-21T00:24:29;100491.58;;;8.80;100.00
13367;BME280;6752;52.612;13.630;2023-02-21T00:29:49;100509.77;;;8.80;100.00
13367;BME280;6752;52.612;13.630;2023-02-21T00:35:09;100508.19;;;8.81;100.00
13367;BME280;6752;52.612;13.630;2023-02-21T00:40:30;100511.03;;;8.77;100.00
13367;BME280;6752;52.612;13.630;2023-02-21T00:45:50;100507.67;;;8.82;100.00
13367;BME280;6752;52.612;13.630;2023-02-21T00:51:11;100498.27;;;8.81;100.00
13367;BME280;6752;52.612;13.630;2023-02-21T00:56:31;100501.39;;;8.81;100.00
13367;BME280;6752;52.612;13.630;2023-02-21T01:01:52;100497.02;;;8.80;100.00
13367;BME280;6752;52.612;13.630;2023-02-21T01:07:13;100488.84;;;8.83;100.00
13367;BME280;6752;52.612;13.630;2023-02-21T01:12:33;100489.23;;;8.90;100.00
13367;BME280;6752;52.612;13.630;2023-02-21T01:17:56;100483.91;;;8.89;100.00
13367;BME280;6752;52.612;13.630;2023-02-21T01:23:17;100479.31;;;8.87;100.00
13367;BME280;6752;52.612;13.630;2023-02-21T01:28:37;100491.96;;;8.87;100.00
13367;BME280;6752;52.612;13.630;2023-02-21T01:33:57;100488.81;;;8.90;100.00
13367;BME280;6752;52.612;13.630;2023-02-21T01:39:18;100482.34;;;8.88;100.00
13367;BME280;6752;52.612;13.630;2023-02-21T01:44:39;100476.47;;;8.90;100.00
13367;BME280;6752;52.612;13.630;2023-02-21T01:50:00;100473.23;;;8.91;100.00
13367;BME280;6752;52.612;13.630;2023-02-21T01:55:19;100473.52;;;8.96;100.00
13367;BME280;6752;52.612;13.630;2023-02-21T02:00:40;100478.86;;;8.93;100.00
13367;BME280;6752;52.612;13.630;2023-02-21T02:06:05;100472.91;;;9.00;100.00
13367;BME280;6752;52.612;13.630;2023-02-21T02:11:37;100481.24;;;8.99;100.00
13367;BME280;6752;52.612;13.630;2023-02-21T02:22:34;100461.28;;;9.02;100.00
13367;BME280;6752;52.612;13.630;2023-02-21T02:27:49;100455.52;;;9.04;100.00
13367;BME280;6752;52.612;13.630;2023-02-21T02:32:57;100449.77;;;9.03;100.00
13367;BME280;6752;52.612;13.630;2023-02-21T02:37:55;100447.87;;;9.07;100.00
13367;BME280;6752;52.612;13.630;2023-02-21T02:43:08;100445.37;;;9.06;100.00
13367;BME280;6752;52.612;13.630;2023-02-21T02:48:14;100446.62;;;9.06;100.00
13367;BME280;6752;52.612;13.630;2023-02-21T02:53:18;100436.34;;;9.12;100.00
13367;BME280;6752;52.612;13.630;2023-02-21T02:58:18;100446.36;;;9.15;100.00
13367;BME280;6752;52.612;13.630;2023-02-21T03:03:45;100448.25;;;9.14;100.00
13367;BME280;6752;52.612;13.630;2023-02-21T03:13:49;100432.94;;;9.20;100.00
13367;BME280;6752;52.612;13.630;2023-02-21T03:19:01;100429.70;;;9.23;100.00
13367;BME280;6752;52.612;13.630;2023-02-21T03:24:01;100442.66;;;9.25;100.00
13367;BME280;6752;52.612;13.630;2023-02-21T03:29:04;100428.62;;;9.28;100.00
13367;BME280;6752;52.612;13.630;2023-02-21T03:34:06;100430.59;;;9.30;100.00
13367;BME280;6752;52.612;13.630;2023-02-21T03:39:09;100418.11;;;9.35;100.00
13367;BME280;6752;52.612;13.630;2023-02-21T03:44:11;100427.41;;;9.36;100.00
13367;BME280;6752;52.612;13.630;2023-02-21T03:49:16;100437.94;;;9.42;100.00
13367;BME280;6752;52.612;13.630;2023-02-21T03:54:18;100429.58;;;9.40;100.00
13367;BME280;6752;52.612;13.630;2023-02-21T03:59:21;100439.30;;;9.42;100.00
13367;BME280;6752;52.612;13.630;2023-02-21T04:04:23;100454.94;;;9.34;100.00
13367;BME280;6752;52.612;13.630;2023-02-21T04:09:26;100459.06;;;9.27;100.00
13367;BME280;6752;52.612;13.630;2023-02-21T04:14:28;100483.11;;;9.30;100.00
13367;BME280;6752;52.612;13.630;2023-02-21T04:19:30;100485.61;;;9.32;100.00
13367;BME280;6752;52.612;13.630;2023-02-21T04:24:36;100495.04;;;9.29;100.00
13367;BME280;6752;52.612;13.630;2023-02-21T04:29:38;100499.45;;;9.20;100.00
13367;BME280;6752;52.612;13.630;2023-02-21T04:34:40;100507.76;;;9.13;100.00
13367;BME280;6752;52.612;13.630;2023-02-21T04:39:43;100520.10;;;9.12;100.00
13367;BME280;6752;52.612;13.630;2023-02-21T04:44:45;100525.33;;;9.14;100.00
13367;BME280;6752;52.612;13.630;2023-02-21T04:49:47;100520.64;;;9.08;100.00
13367;BME280;6752;52.612;13.630;2023-02-21T04:54:51;100540.60;;;9.12;100.00
13367;BME280;6752;52.612;13.630;2023-02-21T04:59:56;100535.58;;;9.12;100.00
13367;BME280;6752;52.612;13.630;2023-02-21T05:04:58;100538.10;;;9.10;100.00
13367;BME280;6752;52.612;13.630;2023-02-21T05:10:01;100536.48;;;9.18;100.00
13367;BME280;6752;52.612;13.630;2023-02-21T05:15:03;100528.98;;;9.14;100.00
13367;BME280;6752;52.612;13.630;2023-02-21T05:20:06;100528.23;;;9.19;100.00
13367;BME280;6752;52.612;13.630;2023-02-21T05:25:15;100528.97;;;9.17;100.00
13367;BME280;6752;52.612;13.630;2023-02-21T05:30:17;100529.67;;;9.21;100.00
13367;BME280;6752;52.612;13.630;2023-02-21T05:35:19;100537.83;;;9.28;100.00
13367;BME280;6752;52.612;13.630;2023-02-21T05:40:21;100532.70;;;9.22;100.00
13367;BME280;6752;52.612;13.630;2023-02-21T05:45:23;100541.19;;;9.20;100.00
13367;BME280;6752;52.612;13.630;2023-02-21T05:50:26;100546.63;;;9.20;100.00
13367;BME280;6752;52.612;13.630;2023-02-21T05:55:28;100540.35;;;9.20;100.00
13367;BME280;6752;52.612;13.630;2023-02-21T06:00:31;100557.09;;;9.20;100.00
13367;BME280;6752;52.612;13.630;2023-02-21T06:05:33;100567.55;;;9.20;100.00
13367;BME280;6752;52.612;13.630;2023-02-21T06:10:35;100566.61;;;9.27;100.00
13367;BME280;6752;52.612;13.630;2023-02-21T06:15:38;100579.48;;;9.25;100.00
13367;BME280;6752;52.612;13.630;2023-02-21T06:20:40;100579.89;;;9.19;100.00
13367;BME280;6752;52.612;13.630;2023-02-21T06:25:43;100581.14;;;9.20;100.00
13367;BME280;6752;52.612;13.630;2023-02-21T06:30:45;100591.17;;;9.22;100.00
13367;BME280;6752;52.612;13.630;2023-02-21T06:35:47;100586.60;;;9.23;100.00
13367;BME280;6752;52.612;13.630;2023-02-21T06:40:50;100592.77;;;9.18;100.00
13367;BME280;6752;52.612;13.630;2023-02-21T06:45:52;100588.30;;;9.11;100.00
13367;BME280;6752;52.612;13.630;2023-02-21T06:50:55;100595.52;;;9.08;100.00
13367;BME280;6752;52.612;13.630;2023-02-21T06:55:57;100596.48;;;8.94;100.00
13367;BME280;6752;52.612;13.630;2023-02-21T07:00:59;100600.13;;;8.97;100.00
13367;BME280;6752;52.612;13.630;2023-02-21T07:06:01;100603.06;;;8.96;100.00
13367;BME280;6752;52.612;13.630;2023-02-21T07:11:04;100603.50;;;8.99;100.00
13367;BME280;6752;52.612;13.630;2023-02-21T07:16:06;100606.41;;;8.95;100.00
13367;BME280;6752;52.612;13.630;2023-02-21T07:21:08;100605.27;;;9.03;100.00
13367;BME280;6752;52.612;13.630;2023-02-21T07:26:11;100605.90;;;9.02;100.00
13367;BME280;6752;52.612;13.630;2023-02-21T07:31:13;100618.84;;;9.06;100.00
13367;BME280;6752;52.612;13.630;2023-02-21T07:36:15;100605.13;;;9.10;100.00
13367;BME280;6752;52.612;13.630;2023-02-21T07:41:18;100611.28;;;9.18;100.00
13367;BME280;6752;52.612;13.630;2023-02-21T07:46:20;100613.61;;;9.40;100.00
13367;BME280;6752;52.612;13.630;2023-02-21T07:51:25;100606.69;;;9.51;100.00
13367;BME280;6752;52.612;13.630;2023-02-21T07:56:25;100617.28;;;9.66;100.00
13367;BME280;6752;52.612;13.630;2023-02-21T08:01:27;100618.63;;;9.72;100.00
13367;BME280;6752;52.612;13.630;2023-02-21T08:06:29;100617.59;;;9.67;100.00
13367;BME280;6752;52.612;13.630;2023-02-21T08:11:32;100630.52;;;9.81;100.00
13367;BME280;6752;52.612;13.630;2023-02-21T08:16:34;100627.36;;;10.03;100.00
13367;BME280;6752;52.612;13.630;2023-02-21T08:21:43;100628.97;;;10.21;100.00
13367;BME280;6752;52.612;13.630;2023-02-21T08:26:42;100636.84;;;9.91;100.00
13367;BME280;6752;52.612;13.630;2023-02-21T08:31:44;100649.63;;;9.94;100.00
13367;BME280;6752;52.612;13.630;2023-02-21T08:36:46;100647.80;;;10.00;100.00
13367;BME280;6752;52.612;13.630;2023-02-21T08:41:49;100648.64;;;10.00;100.00
13367;BME280;6752;52.612;13.630;2023-02-21T08:46:51;100654.22;;;10.12;100.00
13367;BME280;6752;52.612;13.630;2023-02-21T08:51:53;100658.00;;;9.89;100.00
13367;BME280;6752;52.612;13.630;2023-02-21T08:56:56;100656.52;;;9.96;100.00
13367;BME280;6752;52.612;13.630;2023-02-21T09:01:58;100652.34;;;10.09;100.00
13367;BME280;6752;52.612;13.630;2023-02-21T09:07:00;100665.11;;;10.12;100.00
13367;BME280;6752;52.612;13.630;2023-02-21T09:12:03;100668.36;;;9.96;100.00
13367;BME280;6752;52.612;13.630;2023-02-21T09:17:06;100675.76;;;10.17;100.00
13367;BME280;6752;52.612;13.630;2023-02-21T09:22:08;100680.29;;;9.92;100.00
13367;BME280;6752;52.612;13.630;2023-02-21T09:27:10;100685.09;;;9.77;100.00
13367;BME280;6752;52.612;13.630;2023-02-21T09:32:12;100686.67;;;9.72;100.00
13367;BME280;6752;52.612;13.630;2023-02-21T09:37:14;100690.92;;;9.52;100.00
13367;BME280;6752;52.612;13.630;2023-02-21T09:42:17;100706.89;;;9.64;100.00
13367;BME280;6752;52.612;13.630;2023-02-21T09:47:29;100710.98;;;9.61;100.00
13367;BME280;6752;52.612;13.630;2023-02-21T09:52:34;100714.33;;;9.63;100.00
13367;BME280;6752;52.612;13.630;2023-02-21T09:57:35;100725.31;;;9.72;100.00
13367;BME280;6752;52.612;13.630;2023-02-21T10:08:13;100728.13;;;9.74;100.00
13367;BME280;6752;52.612;13.630;2023-02-21T10:13:34;100733.20;;;9.87;100.00
13367;BME280;6752;52.612;13.630;2023-02-21T10:18:58;100738.43;;;10.14;100.00
13367;BME280;6752;52.612;13.630;2023-02-21T10:23:44;100741.04;;;10.14;100.00
13367;BME280;6752;52.612;13.630;2023-02-21T10:28:46;100759.97;;;10.32;100.00
13367;BME280;6752;52.612;13.630;2023-02-21T10:33:48;100755.59;;;10.27;100.00
13367;BME280;6752;52.612;13.630;2023-02-21T10:38:58;100753.80;;;10.50;100.00
13367;BME280;6752;52.612;13.630;2023-02-21T10:44:03;100759.84;;;10.55;100.00
13367;BME280;6752;52.612;13.630;2023-02-21T10:49:24;100762.98;;;10.55;100.00
13367;BME280;6752;52.612;13.630;2023-02-21T10:54:16;100765.41;;;10.32;100.00
13367;BME280;6752;52.612;13.630;2023-02-21T10:59:22;100758.69;;;10.34;100.00
13367;BME280;6752;52.612;13.630;2023-02-21T11:09:29;100755.36;;;10.51;100.00
13367;BME280;6752;52.612;13.630;2023-02-21T11:14:31;100750.72;;;10.90;100.00
13367;BME280;6752;52.612;13.630;2023-02-21T11:19:46;100745.05;;;11.26;100.00
13367;BME280;6752;52.612;13.630;2023-02-21T11:30:15;100757.50;;;10.93;100.00
13367;BME280;6752;52.612;13.630;2023-02-21T11:40:22;100751.40;;;10.63;100.00
13367;BME280;6752;52.612;13.630;2023-02-21T11:45:26;100745.00;;;11.07;98.55
13367;BME280;6752;52.612;13.630;2023-02-21T11:50:29;100756.10;;;11.09;100.00
13367;BME280;6752;52.612;13.630;2023-02-21T11:55:27;100764.31;;;10.78;100.00
13367;BME280;6752;52.612;13.630;2023-02-21T12:00:45;100754.21;;;10.69;97.51
13367;BME280;6752;52.612;13.630;2023-02-21T12:32:54;100741.80;;;11.48;91.64
13367;BME280;6752;52.612;13.630;2023-02-21T12:38:06;100743.86;;;11.06;89.19
13367;BME280;6752;52.612;13.630;2023-02-21T12:48:48;100754.52;;;10.98;92.11
13367;BME280;6752;52.612;13.630;2023-02-21T12:53:59;100758.26;;;10.56;96.00
13367;BME280;6752;52.612;13.630;2023-02-21T12:58:57;100760.30;;;10.49;99.96
13367;BME280;6752;52.612;13.630;2023-02-21T13:04:03;100768.91;;;10.49;100.00
13367;BME280;6752;52.612;13.630;2023-02-21T13:14:13;100759.30;;;10.21;100.00
13367;BME280;6752;52.612;13.630;2023-02-21T13:19:13;100760.95;;;10.41;99.99
13367;BME280;6752;52.612;13.630;2023-02-21T13:24:20;100761.70;;;10.23;99.49
13367;BME280;6752;52.612;13.630;2023-02-21T13:29:33;100766.41;;;10.12;98.71
13367;BME280;6752;52.612;13.630;2023-02-21T13:39:50;100767.52;;;10.01;99.62
13367;BME280;6752;52.612;13.630;2023-02-21T13:45:17;100764.61;;;9.96;99.58
13367;BME280;6752;52.612;13.630;2023-02-21T13:55:39;100772.05;;;9.94;100.00
13367;BME280;6752;52.612;13.630;2023-02-21T14:10:50;100765.19;;;10.04;100.00
13367;BME280;6752;52.612;13.630;2023-02-21T14:15:59;100764.84;;;9.81;100.00
13367;BME280;6752;52.612;13.630;2023-02-21T14:21:00;100767.39;;;9.73;100.00
13367;BME280;6752;52.612;13.630;2023-02-21T14:26:02;100772.52;;;9.65;100.00
13367;BME280;6752;52.612;13.630;2023-02-21T14:31:04;100758.59;;;9.67;100.00
13367;BME280;6752;52.612;13.630;2023-02-21T14:36:10;100767.91;;;9.65;100.00
13367;BME280;6752;52.612;13.630;2023-02-21T14:46:42;100769.06;;;9.64;100.00
13367;BME280;6752;52.612;13.630;2023-02-21T14:51:58;100775.80;;;9.54;100.00
13367;BME280;6752;52.612;13.630;2023-02-21T14:57:30;100790.03;;;9.53;100.00
13367;BME280;6752;52.612;13.630;2023-02-21T15:02:35;100788.34;;;9.46;100.00
13367;BME280;6752;52.612;13.630;2023-02-21T15:12:43;100794.23;;;9.29;100.00
13367;BME280;6752;52.612;13.630;2023-02-21T15:17:44;100799.15;;;9.30;100.00
13367;BME280;6752;52.612;13.630;2023-02-21T15:22:53;100803.13;;;9.31;100.00
13367;BME280;6752;52.612;13.630;2023-02-21T15:33:10;100804.48;;;9.27;100.00
13367;BME280;6752;52.612;13.630;2023-02-21T15:38:06;100804.05;;;9.17;100.00
13367;BME280;6752;52.612;13.630;2023-02-21T15:43:09;100823.08;;;9.14;100.00
13367;BME280;6752;52.612;13.630;2023-02-21T15:48:10;100821.94;;;9.06;100.00
13367;BME280;6752;52.612;13.630;2023-02-21T15:53:16;100829.98;;;9.00;100.00
13367;BME280;6752;52.612;13.630;2023-02-21T15:58:24;100838.73;;;8.95;100.00
13367;BME280;6752;52.612;13.630;2023-02-21T16:03:43;100829.54;;;8.96;100.00
13367;BME280;6752;52.612;13.630;2023-02-21T16:09:04;100838.84;;;8.91;100.00
13367;BME280;6752;52.612;13.630;2023-02-21T16:14:12;100837.27;;;8.80;100.00
13367;BME280;6752;52.612;13.630;2023-02-21T16:19:08;100842.03;;;8.74;100.00
13367;BME280;6752;52.612;13.630;2023-02-21T16:24:30;100848.09;;;8.70;100.00
13367;BME280;6752;52.612;13.630;2023-02-21T16:29:31;100845.16;;;8.65;100.00
13367;BME280;6752;52.612;13.630;2023-02-21T16:34:33;100851.50;;;8.54;100.00
13367;BME280;6752;52.612;13.630;2023-02-21T16:39:35;100861.06;;;8.47;100.00
13367;BME280;6752;52.612;13.630;2023-02-21T16:44:37;100871.52;;;8.29;100.00
13367;BME280;6752;52.612;13.630;2023-02-21T16:49:40;100878.79;;;8.26;100.00
13367;BME280;6752;52.612;13.630;2023-02-21T16:54:42;100886.80;;;8.03;100.00
13367;BME280;6752;52.612;13.630;2023-02-21T16:59:44;100890.81;;;8.07;100.00
13367;BME280;6752;52.612;13.630;2023-02-21T17:04:47;100897.02;;;8.00;100.00
13367;BME280;6752;52.612;13.630;2023-02-21T17:09:49;100900.41;;;7.92;100.00
13367;BME280;6752;52.612;13.630;2023-02-21T17:14:51;100898.23;;;7.95;100.00
13367;BME280;6752;52.612;13.630;2023-02-21T17:19:53;100911.66;;;7.75;100.00
13367;BME280;6752;52.612;13.630;2023-02-21T17:24:56;100906.91;;;7.66;100.00
13367;BME280;6752;52.612;13.630;2023-02-21T17:29:58;100921.56;;;7.50;100.00
13367;BME280;6752;52.612;13.630;2023-02-21T17:35:01;100919.47;;;7.49;100.00
13367;BME280;6752;52.612;13.630;2023-02-21T17:40:03;100925.77;;;7.32;100.00
13367;BME280;6752;52.612;13.630;2023-02-21T17:45:06;100926.20;;;7.11;100.00
13367;BME280;6752;52.612;13.630;2023-02-21T17:50:08;100930.38;;;6.77;100.00
13367;BME280;6752;52.612;13.630;2023-02-21T17:55:14;100945.48;;;6.61;100.00
13367;BME280;6752;52.612;13.630;2023-02-21T18:00:18;100953.66;;;6.71;100.00
13367;BME280;6752;52.612;13.630;2023-02-21T18:05:18;100944.38;;;6.55;100.00
13367;BME280;6752;52.612;13.630;2023-02-21T18:10:21;100953.02;;;6.55;100.00
13367;BME280;6752;52.612;13.630;2023-02-21T18:15:24;100960.92;;;6.45;100.00
13367;BME280;6752;52.612;13.630;2023-02-21T18:20:25;100955.86;;;6.35;100.00
13367;BME280;6752;52.612;13.630;2023-02-21T18:25:28;100952.84;;;6.41;100.00
13367;BME280;6752;52.612;13.630;2023-02-21T18:30:30;100953.28;;;6.38;100.00
13367;BME280;6752;52.612;13.630;2023-02-21T18:35:33;100963.60;;;6.38;100.00
13367;BME280;6752;52.612;13.630;2023-02-21T18:40:35;100960.95;;;6.34;100.00
13367;BME280;6752;52.612;13.630;2023-02-21T18:45:37;100963.94;;;6.54;100.00
13367;BME280;6752;52.612;13.630;2023-02-21T18:50:39;100961.37;;;6.56;100.00
13367;BME280;6752;52.612;13.630;2023-02-21T18:55:42;100969.18;;;6.48;100.00
13367;BME280;6752;52.612;13.630;2023-02-21T19:00:44;100961.23;;;6.54;100.00
13367;BME280;6752;52.612;13.630;2023-02-21T19:05:46;100965.59;;;6.44;100.00
13367;BME280;6752;52.612;13.630;2023-02-21T19:10:48;100967.77;;;6.30;100.00
13367;BME280;6752;52.612;13.630;2023-02-21T19:15:51;100964.30;;;6.36;100.00
13367;BME280;6752;52.612;13.630;2023-02-21T19:20:53;100977.61;;;6.34;100.00
13367;BME280;6752;52.612;13.630;2023-02-21T19:25:55;100973.42;;;6.54;100.00
13367;BME280;6752;52.612;13.630;2023-02-21T19:30:58;100962.77;;;6.52;100.00
13367;BME280;6752;52.612;13.630;2023-02-21T19:36:03;100978.59;;;6.37;100.00
13367;BME280;6752;52.612;13.630;2023-02-21T19:41:06;100987.94;;;6.27;100.00
13367;BME280;6752;52.612;13.630;2023-02-21T19:46:08;100987.72;;;6.14;100.00
13367;BME280;6752;52.612;13.630;2023-02-21T19:51:13;100991.72;;;6.04;100.00
13367;BME280;6752;52.612;13.630;2023-02-21T19:56:12;101000.69;;;5.89;100.00
13367;BME280;6752;52.612;13.630;2023-02-21T20:01:14;101001.61;;;5.81;100.00
13367;BME280;6752;52.612;13.630;2023-02-21T20:06:17;101002.59;;;5.84;100.00
13367;BME280;6752;52.612;13.630;2023-02-21T20:11:20;101008.74;;;5.78;100.00
13367;BME280;6752;52.612;13.630;2023-02-21T20:16:22;101003.50;;;5.69;100.00
13367;BME280;6752;52.612;13.630;2023-02-21T20:21:25;101005.18;;;5.70;100.00
13367;BME280;6752;52.612;13.630;2023-02-21T20:26:27;101008.38;;;5.58;100.00
13367;BME280;6752;52.612;13.630;2023-02-21T20:31:29;101013.00;;;5.61;100.00
13367;BME280;6752;52.612;13.630;2023-02-21T20:36:35;101028.37;;;5.53;100.00
13367;BME280;6752;52.612;13.630;2023-02-21T20:41:36;101018.14;;;5.63;100.00
13367;BME280;6752;52.612;13.630;2023-02-21T20:46:41;101026.50;;;5.53;100.00
13367;BME280;6752;52.612;13.630;2023-02-21T20:51:43;101031.13;;;5.56;100.00
13367;BME280;6752;52.612;13.630;2023-02-21T20:56:47;101036.06;;;5.53;100.00
13367;BME280;6752;52.612;13.630;2023-02-21T21:01:48;101035.43;;;5.43;100.00
13367;BME280;6752;52.612;13.630;2023-02-21T21:06:50;101035.33;;;5.59;100.00
13367;BME280;6752;52.612;13.630;2023-02-21T21:11:55;101041.44;;;5.80;100.00
13367;BME280;6752;52.612;13.630;2023-02-21T21:16:58;101036.13;;;5.90;100.00
13367;BME280;6752;52.612;13.630;2023-02-21T21:22:00;101041.18;;;5.89;100.00
13367;BME280;6752;52.612;13.630;2023-02-21T21:27:02;101041.34;;;5.80;100.00
13367;BME280;6752;52.612;13.630;2023-02-21T21:32:08;101049.63;;;5.67;100.00
13367;BME280;6752;52.612;13.630;2023-02-21T21:37:09;101047.53;;;5.55;100.00
13367;BME280;6752;52.612;13.630;2023-02-21T21:42:12;101047.59;;;5.58;100.00
13367;BME280;6752;52.612;13.630;2023-02-21T21:47:14;101050.05;;;5.72;100.00
13367;BME280;6752;52.612;13.630;2023-02-21T21:52:17;101054.47;;;5.69;100.00
13367;BME280;6752;52.612;13.630;2023-02-21T21:57:19;101056.59;;;5.77;100.00
13367;BME280;6752;52.612;13.630;2023-02-21T22:02:21;101061.34;;;5.75;100.00
13367;BME280;6752;52.612;13.630;2023-02-21T22:07:24;101060.41;;;5.76;100.00
13367;BME280;6752;52.612;13.630;2023-02-21T22:12:27;101058.91;;;5.73;100.00
13367;BME280;6752;52.612;13.630;2023-02-21T22:17:29;101069.34;;;5.69;100.00
13367;BME280;6752;52.612;13.630;2023-02-21T22:22:32;101064.70;;;5.77;100.00
13367;BME280;6752;52.612;13.630;2023-02-21T22:27:34;101063.48;;;5.73;100.00
13367;BME280;6752;52.612;13.630;2023-02-21T22:32:37;101069.72;;;5.84;100.00
13367;BME280;6752;52.612;13.630;2023-02-21T22:37:39;101063.09;;;5.95;100.00
13367;BME280;6752;52.612;13.630;2023-02-21T22:42:42;101068.42;;;6.03;100.00
13367;BME280;6752;52.612;13.630;2023-02-21T22:47:45;101071.16;;;5.92;100.00
13367;BME280;6752;52.612;13.630;2023-02-21T22:52:56;101073.69;;;5.85;100.00
13367;BME280;6752;52.612;13.630;2023-02-21T22:57:58;101061.33;;;5.87;100.00
13367;BME280;6752;52.612;13.630;2023-02-21T23:03:04;101068.22;;;5.82;100.00
13367;BME280;6752;52.612;13.630;2023-02-21T23:08:15;101072.56;;;5.87;100.00
13367;BME280;6752;52.612;13.630;2023-02-21T23:13:17;101067.77;;;5.86;100.00
13367;BME280;6752;52.612;13.630;2023-02-21T23:18:18;101065.31;;;6.10;100.00
13367;BME280;6752;52.612;13.630;2023-02-21T23:23:27;101059.15;;;6.39;100.00
13367;BME280;6752;52.612;13.630;2023-02-21T23:28:29;101058.17;;;6.44;100.00
13367;BME280;6752;52.612;13.630;2023-02-21T23:33:31;101052.28;;;6.40;100.00
13367;BME280;6752;52.612;13.630;2023-02-21T23:38:33;101059.71;;;6.23;100.00
13367;BME280;6752;52.612;13.630;2023-02-21T23:43:36;101064.37;;;6.11;100.00
13367;BME280;6752;52.612;13.630;2023-02-21T23:48:38;101066.80;;;6.06;100.00
13367;BME280;6752;52.612;13.630;2023-02-21T23:53:41;101064.50;;;5.98;100.00
13367;BME280;6752;52.612;13.630;2023-02-21T23:58:43;101063.95;;;6.03;100.00
